logo
Search for airport 
image banner adimage banner adimage banner ad
image banner ad

FAEL - King Phalo

Located in East London, South Africa

ICAO - FAEL, IATA - ELS

Data provided by Airmate  

General information

Coordinates: S33°2'6" E27°49'17"
Elevation is 435 feet MSL.
Magnetic variation is -28° East
Rated:
View ratings:
[VIEW]
View others Airports in Eastern Cape

Operational data

Special qualification required
Current time UTC:
Current local time:
Weather
METAR: FAEL 181100Z 20007KT CAVOK 21/17 Q1018
TAF: TAF FAEL 180900Z 1810/1819 20012KT 9999 FEW010 TX24/1810Z TN18/1819Z TEMPO 1810/1814 BKN008 PROB40 TEMPO 1815/1818 5000 BR BKN003
View NOTAMs / SUP AIP / TFR affecting this airport [VIEW]
Communications frequencies: [VIEW]

Runways:

RWY identifierQFULength (ft)Width (ft)SurfaceLDA (ft)
1182°6336145ASPH6362
29262°6336145ASPH6362
0637°5197143ASPH5197
24217°5197143ASPH5197

Airport contact information

Address: East London South Africa

Other aviation service providers

Flight schools

Border Aviation

Border Aviation

Satellite view of FAEL